createdAt,value
2023-05-12T00:01:17.252Z,11.75
2023-05-12T00:03:44.128Z,11.77
2023-05-12T00:06:11.326Z,11.75
2023-05-12T00:08:38.034Z,11.73
2023-05-12T00:11:04.583Z,11.72
2023-05-12T00:13:31.341Z,11.71
2023-05-12T00:15:59.363Z,11.72
2023-05-12T00:18:28.198Z,11.71
2023-05-12T00:20:55.231Z,11.67
2023-05-12T00:23:22.699Z,11.66
2023-05-12T00:25:49.891Z,11.64
2023-05-12T00:28:17.819Z,11.60
2023-05-12T00:30:44.358Z,11.59
2023-05-12T00:33:11.129Z,11.58
2023-05-12T00:35:37.552Z,11.55
2023-05-12T00:38:04.035Z,11.57
2023-05-12T00:40:30.501Z,11.57
2023-05-12T00:42:57.024Z,11.57
2023-05-12T00:45:23.823Z,11.57
2023-05-12T00:47:52.342Z,11.55
2023-05-12T00:50:19.180Z,11.51
2023-05-12T00:52:47.072Z,11.50
2023-05-12T00:55:13.506Z,11.53
2023-05-12T00:57:41.105Z,11.56
2023-05-12T01:00:08.824Z,11.54
2023-05-12T01:02:36.532Z,11.52
2023-05-12T01:05:04.219Z,11.50
2023-05-12T01:07:32.998Z,11.45
2023-05-12T01:09:59.605Z,11.42
2023-05-12T01:12:27.146Z,11.46
2023-05-12T01:14:56.259Z,11.44
2023-05-12T01:17:32.085Z,11.44
2023-05-12T01:20:04.656Z,11.40
2023-05-12T01:22:33.551Z,11.39
2023-05-12T01:25:09.831Z,11.41
2023-05-12T01:27:39.705Z,11.41
2023-05-12T01:30:06.966Z,11.39
2023-05-12T01:32:34.444Z,11.36
2023-05-12T01:35:00.940Z,11.40
2023-05-12T01:37:27.536Z,11.41
2023-05-12T01:39:55.079Z,11.42
2023-05-12T01:42:21.625Z,11.41
2023-05-12T01:44:48.080Z,11.35
2023-05-12T01:47:15.957Z,11.37
2023-05-12T01:49:42.733Z,11.39
2023-05-12T01:52:09.253Z,11.37
2023-05-12T01:54:36.067Z,11.37
2023-05-12T01:57:02.667Z,11.35
2023-05-12T01:59:28.996Z,11.37
2023-05-12T02:01:55.550Z,11.38
2023-05-12T02:04:22.174Z,11.34
2023-05-12T02:06:48.555Z,11.36
2023-05-12T02:09:15.129Z,11.36
2023-05-12T02:11:41.782Z,11.37
2023-05-12T02:14:08.156Z,11.35
2023-05-12T02:16:34.618Z,11.36
2023-05-12T02:19:01.361Z,11.36
2023-05-12T02:21:28.061Z,11.35
2023-05-12T02:23:54.495Z,11.35
2023-05-12T02:26:21.155Z,11.35
2023-05-12T02:28:47.799Z,11.34
2023-05-12T02:31:14.230Z,11.34
2023-05-12T02:33:40.596Z,11.32
2023-05-12T02:36:07.536Z,11.27
2023-05-12T02:38:34.122Z,11.28
2023-05-12T02:41:01.037Z,11.28
2023-05-12T02:43:27.731Z,11.28
2023-05-12T02:45:54.843Z,11.25
2023-05-12T02:48:21.317Z,11.26
2023-05-12T02:50:47.664Z,11.26
2023-05-12T02:53:14.063Z,11.27
2023-05-12T02:55:40.575Z,11.27
2023-05-12T02:58:07.081Z,11.25
2023-05-12T03:00:33.518Z,11.27
2023-05-12T03:03:00.081Z,11.26
2023-05-12T03:05:26.812Z,11.25
2023-05-12T03:07:53.227Z,11.25
2023-05-12T03:10:19.942Z,11.26
2023-05-12T03:12:46.585Z,11.25
2023-05-12T03:15:12.965Z,11.24
2023-05-12T03:17:39.509Z,11.24
2023-05-12T03:20:06.867Z,11.25
2023-05-12T03:22:33.752Z,11.26
2023-05-12T03:25:00.176Z,11.26
2023-05-12T03:27:26.791Z,11.26
2023-05-12T03:29:53.272Z,11.24
2023-05-12T03:32:19.734Z,11.26
2023-05-12T03:34:46.213Z,11.23
2023-05-12T03:37:12.652Z,11.26
2023-05-12T03:39:39.088Z,11.29
2023-05-12T03:42:05.986Z,11.31
2023-05-12T03:44:32.396Z,11.27
2023-05-12T03:46:58.903Z,11.29
2023-05-12T03:49:25.447Z,11.31
2023-05-12T03:51:51.995Z,11.28
2023-05-12T03:54:18.437Z,11.31
2023-05-12T03:56:44.952Z,11.31
2023-05-12T03:59:12.083Z,11.31
2023-05-12T04:01:38.836Z,11.30
2023-05-12T04:04:05.294Z,11.32
2023-05-12T04:06:31.742Z,11.35
2023-05-12T04:08:58.805Z,11.38
2023-05-12T04:11:25.261Z,11.40
2023-05-12T04:13:51.660Z,11.44
2023-05-12T04:16:18.287Z,11.46
2023-05-12T04:18:44.737Z,11.45
2023-05-12T04:21:11.290Z,11.47
2023-05-12T04:23:37.723Z,11.50
2023-05-12T04:26:05.216Z,11.52
2023-05-12T04:28:32.017Z,11.52
2023-05-12T04:31:04.927Z,11.52
2023-05-12T04:33:31.538Z,11.53
2023-05-12T04:35:58.262Z,11.53
2023-05-12T04:38:24.777Z,11.55
2023-05-12T04:40:51.241Z,11.58
2023-05-12T04:45:47.246Z,11.61
2023-05-12T04:48:13.616Z,11.61
2023-05-12T04:50:40.022Z,11.61
2023-05-12T04:53:06.422Z,11.62
2023-05-12T04:55:32.930Z,11.63
2023-05-12T04:57:59.326Z,11.67
2023-05-12T05:00:25.787Z,11.70
2023-05-12T05:02:52.396Z,11.73
2023-05-12T05:05:19.058Z,11.75
2023-05-12T05:07:45.958Z,11.75
2023-05-12T05:10:12.598Z,11.77
2023-05-12T05:12:38.988Z,11.80
2023-05-12T05:15:06.194Z,11.85
2023-05-12T05:17:32.685Z,11.89
2023-05-12T05:19:59.851Z,11.92
2023-05-12T05:22:27.302Z,11.94
2023-05-12T05:24:53.760Z,11.95
2023-05-12T05:27:20.637Z,11.99
2023-05-12T05:29:47.173Z,12.05
2023-05-12T05:32:13.664Z,12.09
2023-05-12T05:34:40.197Z,12.11
2023-05-12T05:37:06.642Z,12.16
2023-05-12T05:39:33.143Z,12.20
2023-05-12T05:41:59.607Z,12.22
2023-05-12T05:44:26.045Z,12.24
2023-05-12T05:46:52.576Z,12.26
2023-05-12T05:49:19.672Z,12.29
2023-05-12T05:51:46.030Z,12.32
2023-05-12T05:54:12.363Z,12.33
2023-05-12T05:56:38.826Z,12.34
2023-05-12T05:59:05.492Z,12.38
2023-05-12T06:01:32.839Z,12.42
2023-05-12T06:03:59.692Z,12.47
2023-05-12T06:06:26.307Z,12.49
2023-05-12T06:08:55.830Z,12.52
2023-05-12T06:11:22.363Z,12.57
2023-05-12T06:13:48.753Z,12.59
2023-05-12T06:16:15.115Z,12.62
2023-05-12T06:18:41.536Z,12.66
2023-05-12T06:21:08.112Z,12.70
2023-05-12T06:23:34.495Z,12.75
2023-05-12T06:26:00.854Z,12.80
2023-05-12T06:28:27.342Z,12.86
2023-05-12T06:30:53.848Z,12.94
2023-05-12T06:33:20.209Z,12.99
2023-05-12T06:35:46.682Z,13.07
2023-05-12T06:38:13.014Z,13.12
2023-05-12T06:40:39.558Z,13.24
2023-05-12T06:43:06.026Z,13.31
2023-05-12T06:45:32.536Z,13.32
2023-05-12T06:47:58.984Z,13.38
2023-05-12T06:50:25.498Z,13.38
2023-05-12T06:52:51.925Z,13.39
2023-05-12T06:55:20.680Z,13.45
2023-05-12T06:57:47.582Z,13.45
2023-05-12T07:00:14.581Z,13.49
2023-05-12T07:02:41.254Z,13.56
2023-05-12T07:05:08.201Z,13.67
2023-05-12T07:07:36.026Z,13.75
2023-05-12T07:10:02.431Z,13.83
2023-05-12T07:12:28.823Z,13.88
2023-05-12T07:14:55.168Z,14.03
2023-05-12T07:17:21.747Z,14.22
2023-05-12T07:19:48.358Z,14.35
2023-05-12T07:22:14.796Z,14.44
2023-05-12T07:24:41.617Z,14.57
2023-05-12T07:27:08.197Z,14.69
2023-05-12T07:29:34.929Z,14.78
2023-05-12T07:32:01.400Z,14.88
2023-05-12T07:34:27.913Z,14.99
2023-05-12T07:36:54.320Z,15.17
2023-05-12T07:39:23.653Z,15.37
2023-05-12T07:41:51.114Z,15.53
2023-05-12T07:44:17.547Z,15.74
2023-05-12T07:46:44.084Z,15.91
2023-05-12T07:49:10.461Z,16.18
2023-05-12T07:51:37.085Z,16.43
2023-05-12T07:54:04.815Z,16.53
2023-05-12T07:56:31.259Z,16.60
2023-05-12T07:58:57.688Z,16.60
2023-05-12T08:01:24.287Z,16.55
2023-05-12T08:03:51.479Z,16.68
2023-05-12T08:06:18.438Z,16.81
2023-05-12T08:08:45.223Z,16.87
2023-05-12T08:11:12.649Z,16.94
2023-05-12T08:13:39.486Z,17.11
2023-05-12T08:16:06.248Z,17.13
2023-05-12T08:18:32.660Z,17.33
2023-05-12T08:20:59.045Z,17.37
2023-05-12T08:23:25.552Z,17.41
2023-05-12T08:25:51.981Z,17.57
2023-05-12T08:28:18.478Z,17.72
2023-05-12T08:30:45.524Z,17.89
2023-05-12T08:33:12.627Z,18.11
2023-05-12T08:35:39.595Z,18.13
2023-05-12T08:38:06.307Z,18.13
2023-05-12T08:40:37.960Z,18.10
2023-05-12T08:43:14.168Z,18.18
2023-05-12T08:45:41.071Z,18.20
2023-05-12T08:48:10.898Z,18.31
2023-05-12T08:50:38.888Z,18.43
2023-05-12T08:53:10.401Z,18.56
2023-05-12T08:55:37.104Z,18.75
2023-05-12T08:58:05.066Z,18.94
2023-05-12T09:00:34.319Z,18.99
2023-05-12T09:03:02.223Z,19.22
2023-05-12T09:05:30.759Z,19.34
2023-05-12T09:08:00.477Z,19.25
2023-05-12T09:10:35.156Z,19.52
2023-05-12T09:13:21.777Z,19.76
2023-05-12T09:15:48.868Z,19.72
2023-05-12T09:18:15.410Z,19.78
2023-05-12T09:20:42.563Z,19.88
2023-05-12T09:23:16.642Z,19.81
2023-05-12T09:25:43.206Z,19.85
2023-05-12T09:28:09.751Z,19.88
2023-05-12T09:30:38.291Z,19.75
2023-05-12T09:33:06.692Z,19.68
2023-05-12T09:35:38.555Z,19.69
2023-05-12T09:38:14.542Z,19.73
2023-05-12T09:40:41.040Z,19.71
2023-05-12T09:43:08.202Z,19.66
2023-05-12T09:45:36.381Z,19.62
2023-05-12T09:48:10.823Z,19.61
2023-05-12T09:50:51.398Z,19.49
2023-05-12T09:53:19.348Z,19.59
2023-05-12T09:55:47.296Z,19.83
2023-05-12T09:58:16.290Z,20.10
2023-05-12T10:01:12.854Z,20.51
2023-05-12T10:03:31.619Z,20.94
2023-05-12T10:06:01.462Z,21.14
2023-05-12T10:08:33.909Z,21.31
2023-05-12T10:11:02.351Z,21.37
2023-05-12T10:13:29.390Z,21.49
2023-05-12T10:15:57.583Z,21.72
2023-05-12T10:18:24.741Z,21.71
2023-05-12T10:20:53.547Z,21.79
2023-05-12T10:23:20.207Z,21.87
2023-05-12T10:25:47.732Z,21.76
2023-05-12T10:28:14.188Z,21.77
2023-05-12T10:30:41.932Z,21.82
2023-05-12T10:33:11.314Z,21.79
2023-05-12T10:35:40.050Z,21.99
2023-05-12T10:38:17.635Z,22.14
2023-05-12T10:40:53.454Z,22.45
2023-05-12T10:43:24.577Z,22.66
2023-05-12T10:46:15.999Z,22.82
2023-05-12T10:49:13.004Z,23.13
2023-05-12T10:51:42.357Z,23.20
2023-05-12T10:54:11.246Z,22.57
2023-05-12T10:56:38.377Z,22.84
2023-05-12T10:59:31.920Z,22.95
2023-05-12T11:02:04.062Z,22.94
2023-05-12T11:04:37.970Z,23.15
2023-05-12T11:07:06.208Z,23.03
2023-05-12T11:09:36.567Z,22.93
2023-05-12T11:12:08.437Z,23.14
2023-05-12T11:14:36.423Z,23.37
2023-05-12T11:17:03.149Z,23.50
2023-05-12T11:19:30.466Z,23.39
2023-05-12T11:21:56.937Z,23.53
2023-05-12T11:24:23.883Z,23.52
2023-05-12T11:26:52.009Z,23.28
2023-05-12T11:29:19.888Z,23.10
2023-05-12T11:31:53.320Z,23.11
2023-05-12T11:34:24.107Z,23.24
2023-05-12T11:36:52.792Z,23.24
2023-05-12T11:39:24.810Z,23.04
2023-05-12T11:41:56.821Z,23.33
2023-05-12T11:44:32.509Z,23.50
2023-05-12T11:47:11.180Z,23.59
2023-05-12T11:49:51.479Z,23.86
2023-05-12T11:52:19.761Z,24.16
2023-05-12T11:54:55.840Z,24.40
2023-05-12T11:57:29.627Z,24.46
2023-05-12T12:00:07.649Z,24.60
2023-05-12T12:02:36.667Z,24.78
2023-05-12T12:05:03.487Z,24.52
2023-05-12T12:07:34.883Z,24.38
2023-05-12T12:10:12.669Z,24.54
2023-05-12T12:12:39.511Z,24.30
2023-05-12T12:15:06.561Z,24.12
2023-05-12T12:17:32.987Z,24.06
2023-05-12T12:19:59.480Z,24.47
2023-05-12T12:22:26.015Z,24.58
2023-05-12T12:24:52.748Z,24.67
2023-05-12T12:27:19.236Z,24.86
2023-05-12T12:29:45.602Z,25.17
2023-05-12T12:32:12.107Z,25.00
2023-05-12T12:34:38.448Z,24.89
2023-05-12T12:37:05.461Z,24.69
2023-05-12T12:39:31.941Z,24.56
2023-05-12T12:41:58.908Z,24.43
2023-05-12T12:44:25.310Z,24.33
2023-05-12T12:46:51.761Z,24.51
2023-05-12T12:49:18.234Z,24.49
2023-05-12T12:51:46.595Z,24.44
2023-05-12T12:54:14.497Z,24.57
2023-05-12T12:56:40.959Z,24.67
2023-05-12T12:59:07.584Z,24.81
2023-05-12T13:01:34.202Z,24.95
2023-05-12T13:04:01.106Z,25.06
2023-05-12T13:06:27.678Z,25.00
2023-05-12T13:08:54.142Z,24.81
2023-05-12T13:11:20.564Z,24.86
2023-05-12T13:13:47.046Z,24.85
2023-05-12T13:16:13.581Z,25.00
2023-05-12T13:18:40.079Z,24.89
2023-05-12T13:21:06.522Z,24.80
2023-05-12T13:23:32.933Z,24.89
2023-05-12T13:25:59.382Z,25.10
2023-05-12T13:28:25.812Z,25.13
2023-05-12T13:30:52.737Z,25.13
2023-05-12T13:33:19.365Z,25.23
2023-05-12T13:35:45.800Z,25.22
2023-05-12T13:38:12.333Z,25.20
2023-05-12T13:40:38.770Z,25.32
2023-05-12T13:43:05.150Z,25.49
2023-05-12T13:45:31.588Z,25.91
2023-05-12T13:47:58.057Z,26.25
2023-05-12T13:50:24.562Z,26.53
2023-05-12T13:52:50.967Z,26.49
2023-05-12T13:55:21.404Z,26.67
2023-05-12T13:57:48.891Z,26.49
2023-05-12T14:00:17.262Z,26.38
2023-05-12T14:02:43.886Z,26.22
2023-05-12T14:05:10.688Z,26.23
2023-05-12T14:07:37.134Z,26.44
2023-05-12T14:10:03.654Z,26.73
2023-05-12T14:12:30.142Z,26.64
2023-05-12T14:15:04.488Z,26.12
2023-05-12T14:17:38.575Z,25.70
2023-05-12T14:20:06.526Z,25.42
2023-05-12T14:22:33.471Z,25.32
2023-05-12T14:25:00.519Z,25.18
2023-05-12T14:27:27.004Z,25.22
2023-05-12T14:29:53.489Z,25.04
2023-05-12T14:32:19.989Z,25.28
2023-05-12T14:34:46.366Z,25.52
2023-05-12T14:37:12.771Z,25.72
2023-05-12T14:39:39.128Z,26.15
2023-05-12T14:42:05.758Z,26.22
2023-05-12T14:44:32.292Z,26.37
2023-05-12T14:46:58.768Z,26.58
2023-05-12T14:49:25.165Z,26.76
2023-05-12T14:51:51.590Z,26.64
2023-05-12T14:54:25.357Z,26.66
2023-05-12T14:56:52.481Z,26.41
2023-05-12T14:59:19.048Z,26.02
2023-05-12T15:01:45.527Z,26.18
2023-05-12T15:04:12.022Z,26.31
2023-05-12T15:06:38.389Z,25.99
2023-05-12T15:09:04.772Z,25.83
2023-05-12T15:11:31.179Z,25.80
2023-05-12T15:13:57.731Z,25.72
2023-05-12T15:16:26.187Z,25.77
2023-05-12T15:18:52.759Z,25.76
2023-05-12T15:21:19.231Z,26.01
2023-05-12T15:23:45.690Z,25.88
2023-05-12T15:28:41.373Z,26.54
2023-05-12T15:31:08.189Z,26.64
2023-05-12T15:33:34.815Z,26.87
2023-05-12T15:36:01.210Z,26.97
2023-05-12T15:38:27.607Z,26.69
2023-05-12T15:40:54.488Z,26.08
2023-05-12T15:43:20.866Z,25.54
2023-05-12T15:45:47.344Z,24.85
2023-05-12T15:48:13.928Z,23.95
2023-05-12T15:50:40.457Z,23.39
2023-05-12T15:53:07.063Z,22.61
2023-05-12T15:55:33.617Z,22.21
2023-05-12T15:58:01.206Z,21.77
2023-05-12T16:00:28.083Z,21.75
2023-05-12T16:02:54.866Z,21.73
2023-05-12T16:05:23.872Z,21.59
2023-05-12T16:07:50.453Z,21.51
2023-05-12T16:10:17.465Z,21.51
2023-05-12T16:12:45.829Z,21.49
2023-05-12T16:15:12.657Z,21.46
2023-05-12T16:17:39.161Z,21.49
2023-05-12T16:20:07.707Z,21.61
2023-05-12T16:22:34.397Z,21.51
2023-05-12T16:25:00.783Z,21.41
2023-05-12T16:27:27.162Z,21.38
2023-05-12T16:29:53.677Z,21.31
2023-05-12T16:32:20.297Z,21.38
2023-05-12T16:34:47.022Z,21.37
2023-05-12T16:37:13.827Z,21.42
2023-05-12T16:39:40.182Z,21.47
2023-05-12T16:42:06.943Z,21.41
2023-05-12T16:44:33.531Z,21.47
2023-05-12T16:46:59.904Z,21.58
2023-05-12T16:49:26.251Z,21.51
2023-05-12T16:51:52.734Z,21.38
2023-05-12T16:54:19.123Z,21.31
2023-05-12T16:56:45.592Z,21.29
2023-05-12T16:59:11.968Z,21.34
2023-05-12T17:01:39.446Z,21.37
2023-05-12T17:04:07.916Z,21.32
2023-05-12T17:06:34.463Z,21.30
2023-05-12T17:09:01.393Z,21.30
2023-05-12T17:11:27.771Z,21.30
2023-05-12T17:13:54.152Z,21.30
2023-05-12T17:16:20.644Z,21.39
2023-05-12T17:21:16.485Z,21.88
2023-05-12T17:23:42.945Z,21.98
2023-05-12T17:26:09.331Z,21.84
2023-05-12T17:28:35.725Z,21.73
2023-05-12T17:31:02.209Z,21.67
2023-05-12T17:33:29.425Z,21.53
2023-05-12T17:36:10.799Z,21.43
2023-05-12T17:38:39.886Z,21.46
2023-05-12T17:41:06.382Z,21.88
2023-05-12T17:43:32.722Z,22.19
2023-05-12T17:46:00.408Z,22.53
2023-05-12T17:48:26.872Z,22.80
2023-05-12T17:50:53.312Z,23.03
2023-05-12T17:53:19.626Z,23.02
2023-05-12T17:55:46.089Z,23.34
2023-05-12T17:58:12.598Z,23.21
2023-05-12T18:00:39.047Z,22.69
2023-05-12T18:03:05.601Z,22.38
2023-05-12T18:05:32.706Z,22.31
2023-05-12T18:08:00.190Z,22.14
2023-05-12T18:10:26.817Z,21.92
2023-05-12T18:12:53.778Z,21.79
2023-05-12T18:15:24.204Z,21.70
2023-05-12T18:17:50.656Z,21.52
2023-05-12T18:20:17.664Z,21.43
2023-05-12T18:22:44.315Z,21.36
2023-05-12T18:25:12.699Z,21.19
2023-05-12T18:27:39.010Z,20.98
2023-05-12T18:30:05.953Z,20.82
2023-05-12T18:32:32.849Z,20.74
2023-05-12T18:34:59.606Z,20.62
2023-05-12T18:37:25.949Z,20.47
2023-05-12T18:39:54.303Z,20.36
2023-05-12T18:42:20.947Z,20.19
2023-05-12T18:44:47.352Z,20.01
2023-05-12T18:47:13.734Z,19.93
2023-05-12T18:49:40.066Z,19.84
2023-05-12T18:52:06.468Z,19.71
2023-05-12T18:54:32.830Z,19.61
2023-05-12T18:56:59.160Z,19.50
2023-05-12T18:59:25.549Z,19.35
2023-05-12T19:01:52.009Z,19.18
2023-05-12T19:04:19.537Z,19.07
2023-05-12T19:06:46.038Z,18.97
2023-05-12T19:09:12.458Z,18.92
2023-05-12T19:11:38.876Z,18.87
2023-05-12T19:14:05.437Z,18.81
2023-05-12T19:16:33.640Z,18.72
2023-05-12T19:19:01.811Z,18.66
2023-05-12T19:21:28.390Z,18.59
2023-05-12T19:23:55.802Z,18.49
2023-05-12T19:26:22.166Z,18.40
2023-05-12T19:28:48.572Z,18.25
2023-05-12T19:31:15.019Z,18.17
2023-05-12T19:33:41.536Z,18.11
2023-05-12T19:36:08.092Z,18.04
2023-05-12T19:38:34.542Z,17.95
2023-05-12T19:41:00.968Z,17.92
2023-05-12T19:43:27.354Z,17.82
2023-05-12T19:45:54.183Z,17.66
2023-05-12T19:48:21.293Z,17.53
2023-05-12T19:50:47.812Z,17.49
2023-05-12T19:53:14.193Z,17.43
2023-05-12T19:55:40.655Z,17.33
2023-05-12T19:58:08.839Z,17.27
2023-05-12T20:00:36.448Z,17.23
2023-05-12T20:03:05.549Z,17.16
2023-05-12T20:05:35.448Z,17.10
2023-05-12T20:08:01.808Z,17.06
2023-05-12T20:10:28.164Z,16.98
2023-05-12T20:12:55.186Z,16.97
2023-05-12T20:15:21.925Z,16.87
2023-05-12T20:17:48.585Z,16.82
2023-05-12T20:20:15.054Z,16.70
2023-05-12T20:22:41.456Z,16.68
2023-05-12T20:25:08.227Z,16.61
2023-05-12T20:27:34.604Z,16.56
2023-05-12T20:30:01.057Z,16.50
2023-05-12T20:32:27.520Z,16.46
2023-05-12T20:34:53.987Z,16.42
2023-05-12T20:37:20.444Z,16.35
2023-05-12T20:39:46.919Z,16.31
2023-05-12T20:42:13.931Z,16.30
2023-05-12T20:44:40.658Z,16.22
2023-05-12T20:47:07.224Z,16.19
2023-05-12T20:49:33.702Z,16.13
2023-05-12T20:52:00.174Z,16.05
2023-05-12T20:54:26.641Z,16.02
2023-05-12T20:56:53.037Z,15.98
2023-05-12T20:59:19.990Z,15.96
2023-05-12T21:01:46.622Z,15.91
2023-05-12T21:04:13.255Z,15.85
2023-05-12T21:06:40.219Z,15.82
2023-05-12T21:09:06.655Z,15.82
2023-05-12T21:11:33.183Z,15.77
2023-05-12T21:13:59.781Z,15.73
2023-05-12T21:16:26.314Z,15.71
2023-05-12T21:18:52.841Z,15.69
2023-05-12T21:21:19.302Z,15.65
2023-05-12T21:23:46.172Z,15.60
2023-05-12T21:26:12.562Z,15.55
2023-05-12T21:28:38.994Z,15.53
2023-05-12T21:31:05.448Z,15.51
2023-05-12T21:33:33.222Z,15.46
2023-05-12T21:35:59.637Z,15.43
2023-05-12T21:38:26.057Z,15.38
2023-05-12T21:40:52.826Z,15.32
2023-05-12T21:43:19.230Z,15.29
2023-05-12T21:45:45.840Z,15.25
2023-05-12T21:48:12.683Z,15.22
2023-05-12T21:50:39.167Z,15.20
2023-05-12T21:53:05.604Z,15.14
2023-05-12T21:55:32.494Z,15.11
2023-05-12T21:57:58.845Z,15.07
2023-05-12T22:00:26.071Z,15.07
2023-05-12T22:02:52.574Z,15.07
2023-05-12T22:05:19.123Z,15.07
2023-05-12T22:07:46.454Z,15.06
2023-05-12T22:10:13.102Z,15.05
2023-05-12T22:12:40.245Z,15.05
2023-05-12T22:15:07.668Z,15.02
2023-05-12T22:17:34.099Z,15.05
2023-05-12T22:20:00.464Z,15.05
2023-05-12T22:22:26.953Z,15.06
2023-05-12T22:24:53.453Z,15.04
2023-05-12T22:27:22.319Z,15.05
2023-05-12T22:29:48.964Z,15.01
2023-05-12T22:32:16.502Z,14.99
2023-05-12T22:34:42.939Z,15.00
2023-05-12T22:37:09.369Z,15.02
2023-05-12T22:39:35.746Z,15.01
2023-05-12T22:42:03.181Z,15.00
2023-05-12T22:44:29.767Z,15.00
2023-05-12T22:46:56.214Z,14.97
2023-05-12T22:49:22.607Z,14.96
2023-05-12T22:51:49.009Z,14.94
2023-05-12T22:54:15.746Z,14.94
2023-05-12T22:56:42.312Z,14.91
2023-05-12T22:59:08.705Z,14.91
2023-05-12T23:01:35.087Z,14.90
2023-05-12T23:04:01.499Z,14.91
2023-05-12T23:06:27.933Z,14.90
2023-05-12T23:08:54.418Z,14.88
2023-05-12T23:11:21.412Z,14.85
2023-05-12T23:13:47.802Z,14.84
2023-05-12T23:16:14.207Z,14.80
2023-05-12T23:18:40.670Z,14.81
2023-05-12T23:21:07.199Z,14.79
2023-05-12T23:23:33.602Z,14.78
2023-05-12T23:26:00.023Z,14.77
2023-05-12T23:28:26.353Z,14.75
2023-05-12T23:30:52.717Z,14.71
2023-05-12T23:33:19.159Z,14.68
2023-05-12T23:35:45.623Z,14.64
2023-05-12T23:38:11.954Z,14.61
2023-05-12T23:40:39.339Z,14.57
2023-05-12T23:43:06.668Z,14.54
2023-05-12T23:45:33.461Z,14.50
2023-05-12T23:48:00.847Z,14.47
2023-05-12T23:50:27.342Z,14.43
2023-05-12T23:52:53.955Z,14.40
2023-05-12T23:55:21.534Z,14.37
2023-05-12T23:57:48.829Z,14.35
